MMMD/MID METAR and TAF weather

Enter ICAO airport designator
Station Type Date Time Source
MMMD METAR 2022/11/26 08:43 UTC NOAA

MMMD 260843Z 13005KT 7SM SKC 24/23 A2997 RMK SLP149 57006 963 HZY


Station Type Date Time Source
MMMD Decoded METAR 2022/11/26 08:43 UTC NOAA

Merida / lic Manuel Crecencio, Mexico (MMMD) 20-56N 089-39W 11M
Nov 26, 2022 - 03:43 AM EST / 2022.11.26 0843 UTC
Wind: from the SE (130 degrees) at 6 MPH (5 KT):0
Visibility: 7 mile(s):0
Sky conditions: clear
Temperature: 75 F (24 C)
Dew Point: 73 F (23 C)
Relative Humidity: 94%
Pressure (altimeter): 29.97 in. Hg (1014 hPa)
Pressure tendency: 0.02 inches (0.6 hPa) lower than three hours ago
ob: MMMD 260843Z 13005KT 7SM SKC 24/23 A2997 RMK SLP149 57006 963 HZY
cycle: 8

Station Type Date Time Source
MMMD TAF 2022/11/26 06:19 UTC NOAA

TAF MMMD 260412Z 2606/2712 06005KT P6SM SCT020 TX33/2619Z TN23/2612Z
TEMPO 2611/2615 4SM HZ BKN010
FM261800 12012KT P6SM BKN020 BKN250
FM270600 12005KT P6SM SCT020

Example: see airport list